sensor_id;sensor_type;location;lat;lon;timestamp;pressure;altitude;pressure_sealevel;temperature;humidity
84032;BME280;74113;46.556;24.570;2023-11-21T00:01:35;97640.22;;;6.10;77.55
84032;BME280;74113;46.556;24.570;2023-11-21T00:04:04;97637.20;;;6.08;77.73
84032;BME280;74113;46.556;24.570;2023-11-21T00:06:33;97636.86;;;6.07;77.58
84032;BME280;74113;46.556;24.570;2023-11-21T00:09:02;97640.65;;;6.08;77.80
84032;BME280;74113;46.556;24.570;2023-11-21T00:11:31;97637.52;;;6.09;77.67
84032;BME280;74113;46.556;24.570;2023-11-21T00:13:59;97638.00;;;6.10;77.68
84032;BME280;74113;46.556;24.570;2023-11-21T00:16:28;97639.88;;;6.10;77.87
84032;BME280;74113;46.556;24.570;2023-11-21T00:18:56;97637.55;;;6.08;77.29
84032;BME280;74113;46.556;24.570;2023-11-21T00:21:25;97644.91;;;6.04;77.43
84032;BME280;74113;46.556;24.570;2023-11-21T00:23:53;97640.60;;;6.04;77.52
84032;BME280;74113;46.556;24.570;2023-11-21T00:26:22;97644.98;;;6.07;77.54
84032;BME280;74113;46.556;24.570;2023-11-21T00:28:57;97643.10;;;6.12;77.57
84032;BME280;74113;46.556;24.570;2023-11-21T00:31:26;97644.23;;;6.14;77.92
84032;BME280;74113;46.556;24.570;2023-11-21T00:33:54;97648.33;;;6.15;77.87
84032;BME280;74113;46.556;24.570;2023-11-21T00:36:24;97646.77;;;6.16;77.91
84032;BME280;74113;46.556;24.570;2023-11-21T00:38:54;97643.30;;;6.16;77.80
84032;BME280;74113;46.556;24.570;2023-11-21T00:41:24;97643.81;;;6.16;77.73
84032;BME280;74113;46.556;24.570;2023-11-21T00:43:55;97644.87;;;6.16;77.54
84032;BME280;74113;46.556;24.570;2023-11-21T00:46:24;97644.08;;;6.14;77.74
84032;BME280;74113;46.556;24.570;2023-11-21T00:48:55;97638.13;;;6.11;77.44
84032;BME280;74113;46.556;24.570;2023-11-21T00:51:24;97641.64;;;6.09;77.34
84032;BME280;74113;46.556;24.570;2023-11-21T00:53:52;97637.50;;;6.09;77.42
84032;BME280;74113;46.556;24.570;2023-11-21T00:56:21;97631.08;;;6.05;77.82
84032;BME280;74113;46.556;24.570;2023-11-21T00:58:50;97634.47;;;6.02;77.41
84032;BME280;74113;46.556;24.570;2023-11-21T01:01:21;97638.23;;;6.03;77.65
84032;BME280;74113;46.556;24.570;2023-11-21T01:03:52;97638.84;;;6.05;77.71
84032;BME280;74113;46.556;24.570;2023-11-21T01:06:22;97637.58;;;6.06;77.83
84032;BME280;74113;46.556;24.570;2023-11-21T01:08:50;97643.77;;;6.07;77.55
84032;BME280;74113;46.556;24.570;2023-11-21T01:11:19;97628.54;;;6.09;77.84
84032;BME280;74113;46.556;24.570;2023-11-21T01:13:49;97618.42;;;6.07;77.42
84032;BME280;74113;46.556;24.570;2023-11-21T01:16:17;97626.68;;;6.03;77.34
84032;BME280;74113;46.556;24.570;2023-11-21T01:18:46;97633.98;;;6.01;77.71
84032;BME280;74113;46.556;24.570;2023-11-21T01:21:14;97626.77;;;6.00;77.83
84032;BME280;74113;46.556;24.570;2023-11-21T01:23:42;97615.96;;;5.98;77.94
84032;BME280;74113;46.556;24.570;2023-11-21T01:26:11;97616.13;;;5.99;78.02
84032;BME280;74113;46.556;24.570;2023-11-21T01:28:39;97624.70;;;6.05;77.78
84032;BME280;74113;46.556;24.570;2023-11-21T01:31:08;97627.49;;;6.10;78.11
84032;BME280;74113;46.556;24.570;2023-11-21T01:33:37;97618.06;;;6.14;78.19
84032;BME280;74113;46.556;24.570;2023-11-21T01:36:05;97628.70;;;6.15;78.16
84032;BME280;74113;46.556;24.570;2023-11-21T01:38:34;97625.33;;;6.18;77.87
84032;BME280;74113;46.556;24.570;2023-11-21T01:41:03;97622.45;;;6.17;77.55
84032;BME280;74113;46.556;24.570;2023-11-21T01:43:32;97624.23;;;6.15;77.77
84032;BME280;74113;46.556;24.570;2023-11-21T01:46:01;97616.23;;;6.12;77.75
84032;BME280;74113;46.556;24.570;2023-11-21T01:48:29;97614.75;;;6.09;77.60
84032;BME280;74113;46.556;24.570;2023-11-21T01:50:58;97614.14;;;6.07;77.59
84032;BME280;74113;46.556;24.570;2023-11-21T01:53:31;97616.55;;;6.07;77.90
84032;BME280;74113;46.556;24.570;2023-11-21T01:55:59;97612.50;;;6.05;77.75
84032;BME280;74113;46.556;24.570;2023-11-21T01:58:28;97625.28;;;6.09;77.87
84032;BME280;74113;46.556;24.570;2023-11-21T02:00:57;97623.30;;;6.12;77.90
84032;BME280;74113;46.556;24.570;2023-11-21T02:03:26;97620.22;;;6.11;77.78
84032;BME280;74113;46.556;24.570;2023-11-21T02:05:55;97624.10;;;6.13;78.16
84032;BME280;74113;46.556;24.570;2023-11-21T02:08:24;97619.23;;;6.15;77.83
84032;BME280;74113;46.556;24.570;2023-11-21T02:10:53;97622.80;;;6.16;77.89
84032;BME280;74113;46.556;24.570;2023-11-21T02:13:21;97617.05;;;6.18;77.64
84032;BME280;74113;46.556;24.570;2023-11-21T02:15:50;97605.02;;;6.18;77.63
84032;BME280;74113;46.556;24.570;2023-11-21T02:18:20;97617.02;;;6.14;77.44
84032;BME280;74113;46.556;24.570;2023-11-21T02:20:50;97612.21;;;6.14;77.71
84032;BME280;74113;46.556;24.570;2023-11-21T02:23:19;97615.14;;;6.14;77.86
84032;BME280;74113;46.556;24.570;2023-11-21T02:25:47;97606.52;;;6.14;77.83
84032;BME280;74113;46.556;24.570;2023-11-21T02:28:16;97612.37;;;6.14;78.14
84032;BME280;74113;46.556;24.570;2023-11-21T02:30:53;97621.11;;;6.16;78.01
84032;BME280;74113;46.556;24.570;2023-11-21T02:33:27;97623.91;;;6.20;78.15
84032;BME280;74113;46.556;24.570;2023-11-21T02:35:56;97623.73;;;6.26;78.18
84032;BME280;74113;46.556;24.570;2023-11-21T02:38:24;97631.13;;;6.32;78.52
84032;BME280;74113;46.556;24.570;2023-11-21T02:40:53;97631.52;;;6.35;78.20
84032;BME280;74113;46.556;24.570;2023-11-21T02:43:22;97635.33;;;6.35;77.88
84032;BME280;74113;46.556;24.570;2023-11-21T02:45:50;97631.14;;;6.31;77.63
84032;BME280;74113;46.556;24.570;2023-11-21T02:48:19;97632.12;;;6.27;77.80
84032;BME280;74113;46.556;24.570;2023-11-21T02:50:47;97629.94;;;6.25;77.66
84032;BME280;74113;46.556;24.570;2023-11-21T02:53:16;97633.53;;;6.20;77.38
84032;BME280;74113;46.556;24.570;2023-11-21T02:55:44;97640.60;;;6.15;77.54
84032;BME280;74113;46.556;24.570;2023-11-21T02:58:13;97641.67;;;6.14;77.80
84032;BME280;74113;46.556;24.570;2023-11-21T03:00:43;97644.63;;;6.12;77.98
84032;BME280;74113;46.556;24.570;2023-11-21T03:03:12;97642.61;;;6.11;77.92
84032;BME280;74113;46.556;24.570;2023-11-21T03:05:41;97646.63;;;6.09;77.99
84032;BME280;74113;46.556;24.570;2023-11-21T03:08:09;97645.40;;;6.09;77.96
84032;BME280;74113;46.556;24.570;2023-11-21T03:10:38;97647.66;;;6.09;77.80
84032;BME280;74113;46.556;24.570;2023-11-21T03:13:06;97650.98;;;6.07;77.78
84032;BME280;74113;46.556;24.570;2023-11-21T03:15:35;97637.66;;;6.05;77.97
84032;BME280;74113;46.556;24.570;2023-11-21T03:18:04;97642.58;;;6.01;77.69
84032;BME280;74113;46.556;24.570;2023-11-21T03:20:33;97643.04;;;6.03;77.75
84032;BME280;74113;46.556;24.570;2023-11-21T03:23:03;97638.62;;;6.07;77.63
84032;BME280;74113;46.556;24.570;2023-11-21T03:25:33;97633.63;;;6.12;78.00
84032;BME280;74113;46.556;24.570;2023-11-21T03:28:01;97639.69;;;6.16;78.32
84032;BME280;74113;46.556;24.570;2023-11-21T03:30:30;97651.18;;;6.18;78.27
84032;BME280;74113;46.556;24.570;2023-11-21T03:32:59;97639.73;;;6.20;78.26
84032;BME280;74113;46.556;24.570;2023-11-21T03:35:27;97636.58;;;6.17;77.95
84032;BME280;74113;46.556;24.570;2023-11-21T03:37:56;97647.15;;;6.15;77.90
84032;BME280;74113;46.556;24.570;2023-11-21T03:40:25;97651.23;;;6.16;77.82
84032;BME280;74113;46.556;24.570;2023-11-21T03:42:53;97651.29;;;6.14;77.87
84032;BME280;74113;46.556;24.570;2023-11-21T03:45:21;97653.11;;;6.11;77.83
84032;BME280;74113;46.556;24.570;2023-11-21T03:47:50;97659.98;;;6.12;77.79
84032;BME280;74113;46.556;24.570;2023-11-21T03:50:19;97657.58;;;6.12;78.10
84032;BME280;74113;46.556;24.570;2023-11-21T03:52:47;97650.13;;;6.13;78.25
84032;BME280;74113;46.556;24.570;2023-11-21T03:55:16;97652.77;;;6.11;78.15
84032;BME280;74113;46.556;24.570;2023-11-21T03:57:45;97646.92;;;6.11;77.99
84032;BME280;74113;46.556;24.570;2023-11-21T04:00:14;97644.17;;;6.10;78.18
84032;BME280;74113;46.556;24.570;2023-11-21T04:02:42;97638.81;;;6.11;77.67
84032;BME280;74113;46.556;24.570;2023-11-21T04:05:11;97641.67;;;6.13;77.74
84032;BME280;74113;46.556;24.570;2023-11-21T04:07:40;97642.16;;;6.14;78.09
84032;BME280;74113;46.556;24.570;2023-11-21T04:10:09;97637.91;;;6.13;77.68
84032;BME280;74113;46.556;24.570;2023-11-21T04:12:40;97640.00;;;6.12;77.59
84032;BME280;74113;46.556;24.570;2023-11-21T04:15:09;97643.23;;;6.13;77.69
84032;BME280;74113;46.556;24.570;2023-11-21T04:17:38;97641.64;;;6.14;77.59
84032;BME280;74113;46.556;24.570;2023-11-21T04:20:08;97638.11;;;6.12;78.26
84032;BME280;74113;46.556;24.570;2023-11-21T04:22:39;97642.15;;;6.09;77.59
84032;BME280;74113;46.556;24.570;2023-11-21T04:25:15;97646.95;;;6.10;77.66
84032;BME280;74113;46.556;24.570;2023-11-21T04:27:45;97645.04;;;6.11;78.00
84032;BME280;74113;46.556;24.570;2023-11-21T04:30:14;97643.83;;;6.10;78.07
84032;BME280;74113;46.556;24.570;2023-11-21T04:32:43;97644.73;;;6.10;78.15
84032;BME280;74113;46.556;24.570;2023-11-21T04:35:12;97641.84;;;6.08;78.45
84032;BME280;74113;46.556;24.570;2023-11-21T04:37:40;97639.64;;;6.07;78.05
84032;BME280;74113;46.556;24.570;2023-11-21T04:40:09;97635.54;;;6.06;78.12
84032;BME280;74113;46.556;24.570;2023-11-21T04:42:38;97635.70;;;6.06;78.08
84032;BME280;74113;46.556;24.570;2023-11-21T04:45:07;97630.72;;;6.06;77.89
84032;BME280;74113;46.556;24.570;2023-11-21T04:47:40;97629.39;;;6.04;78.00
84032;BME280;74113;46.556;24.570;2023-11-21T04:50:10;97626.94;;;6.00;77.93
84032;BME280;74113;46.556;24.570;2023-11-21T04:52:39;97631.05;;;5.95;78.50
84032;BME280;74113;46.556;24.570;2023-11-21T04:55:08;97626.42;;;5.89;78.24
84032;BME280;74113;46.556;24.570;2023-11-21T04:57:39;97630.98;;;5.86;77.77
84032;BME280;74113;46.556;24.570;2023-11-21T05:00:11;97634.68;;;5.89;77.85
84032;BME280;74113;46.556;24.570;2023-11-21T05:02:41;97639.09;;;5.91;77.91
84032;BME280;74113;46.556;24.570;2023-11-21T05:05:10;97639.55;;;5.93;78.16
84032;BME280;74113;46.556;24.570;2023-11-21T05:07:39;97639.17;;;5.94;77.98
84032;BME280;74113;46.556;24.570;2023-11-21T05:10:10;97640.46;;;5.92;77.96
84032;BME280;74113;46.556;24.570;2023-11-21T05:12:43;97644.13;;;5.90;77.99
84032;BME280;74113;46.556;24.570;2023-11-21T05:15:14;97644.36;;;5.88;78.18
84032;BME280;74113;46.556;24.570;2023-11-21T05:17:44;97644.70;;;5.88;77.88
84032;BME280;74113;46.556;24.570;2023-11-21T05:20:14;97645.55;;;5.89;77.96
84032;BME280;74113;46.556;24.570;2023-11-21T05:22:47;97644.91;;;5.87;77.82
84032;BME280;74113;46.556;24.570;2023-11-21T05:25:19;97646.50;;;5.84;77.80
84032;BME280;74113;46.556;24.570;2023-11-21T05:27:48;97649.48;;;5.82;77.70
84032;BME280;74113;46.556;24.570;2023-11-21T05:30:17;97650.96;;;5.79;77.51
84032;BME280;74113;46.556;24.570;2023-11-21T05:32:45;97647.83;;;5.74;77.76
84032;BME280;74113;46.556;24.570;2023-11-21T05:35:15;97646.58;;;5.70;77.93
84032;BME280;74113;46.556;24.570;2023-11-21T05:37:45;97649.52;;;5.69;77.73
84032;BME280;74113;46.556;24.570;2023-11-21T05:40:15;97659.59;;;5.72;78.18
84032;BME280;74113;46.556;24.570;2023-11-21T05:42:44;97662.77;;;5.94;78.90
84032;BME280;74113;46.556;24.570;2023-11-21T05:45:14;97661.73;;;6.11;78.17
84032;BME280;74113;46.556;24.570;2023-11-21T05:47:45;97660.26;;;6.25;76.92
84032;BME280;74113;46.556;24.570;2023-11-21T05:50:16;97660.05;;;6.21;76.58
84032;BME280;74113;46.556;24.570;2023-11-21T05:52:47;97658.19;;;6.14;76.64
84032;BME280;74113;46.556;24.570;2023-11-21T05:55:18;97655.42;;;6.09;76.98
84032;BME280;74113;46.556;24.570;2023-11-21T05:57:55;97660.65;;;6.07;76.77
84032;BME280;74113;46.556;24.570;2023-11-21T06:00:24;97664.21;;;6.03;77.06
84032;BME280;74113;46.556;24.570;2023-11-21T06:02:55;97668.35;;;5.97;76.97
84032;BME280;74113;46.556;24.570;2023-11-21T06:05:26;97669.36;;;5.92;77.11
84032;BME280;74113;46.556;24.570;2023-11-21T06:07:56;97672.42;;;5.93;77.12
84032;BME280;74113;46.556;24.570;2023-11-21T06:10:29;97677.23;;;5.93;77.20
84032;BME280;74113;46.556;24.570;2023-11-21T06:12:59;97671.05;;;5.93;77.27
84032;BME280;74113;46.556;24.570;2023-11-21T06:15:31;97663.53;;;5.97;77.50
84032;BME280;74113;46.556;24.570;2023-11-21T06:18:01;97656.95;;;6.04;77.60
84032;BME280;74113;46.556;24.570;2023-11-21T06:20:29;97664.19;;;6.09;78.05
84032;BME280;74113;46.556;24.570;2023-11-21T06:22:58;97673.77;;;6.16;77.96
84032;BME280;74113;46.556;24.570;2023-11-21T06:25:32;97675.56;;;6.20;77.41
84032;BME280;74113;46.556;24.570;2023-11-21T06:28:04;97665.42;;;6.19;77.48
84032;BME280;74113;46.556;24.570;2023-11-21T06:30:33;97664.36;;;6.21;77.09
84032;BME280;74113;46.556;24.570;2023-11-21T06:33:02;97662.38;;;6.23;77.31
84032;BME280;74113;46.556;24.570;2023-11-21T06:35:31;97666.98;;;6.25;77.10
84032;BME280;74113;46.556;24.570;2023-11-21T06:38:02;97666.23;;;6.27;77.11
84032;BME280;74113;46.556;24.570;2023-11-21T06:40:31;97663.67;;;6.26;77.28
84032;BME280;74113;46.556;24.570;2023-11-21T06:43:02;97666.31;;;6.24;76.94
84032;BME280;74113;46.556;24.570;2023-11-21T06:45:30;97669.98;;;6.22;76.99
84032;BME280;74113;46.556;24.570;2023-11-21T06:47:58;97671.42;;;6.26;77.06
84032;BME280;74113;46.556;24.570;2023-11-21T06:50:28;97679.55;;;6.31;77.51
84032;BME280;74113;46.556;24.570;2023-11-21T06:53:02;97684.55;;;6.36;77.55
84032;BME280;74113;46.556;24.570;2023-11-21T06:56:04;97688.38;;;6.46;78.45
84032;BME280;74113;46.556;24.570;2023-11-21T06:58:36;97693.52;;;6.52;77.24
84032;BME280;74113;46.556;24.570;2023-11-21T07:01:05;97699.27;;;6.56;77.27
84032;BME280;74113;46.556;24.570;2023-11-21T07:03:35;97698.26;;;6.65;77.04
84032;BME280;74113;46.556;24.570;2023-11-21T07:06:07;97693.59;;;6.71;76.50
84032;BME280;74113;46.556;24.570;2023-11-21T07:09:05;97694.15;;;6.65;76.23
84032;BME280;74113;46.556;24.570;2023-11-21T07:12:00;97692.83;;;6.58;77.17
84032;BME280;74113;46.556;24.570;2023-11-21T07:14:47;97686.81;;;6.62;77.21
84032;BME280;74113;46.556;24.570;2023-11-21T07:17:18;97687.73;;;6.66;77.10
84032;BME280;74113;46.556;24.570;2023-11-21T07:19:57;97681.61;;;6.58;76.79
84032;BME280;74113;46.556;24.570;2023-11-21T07:22:30;97678.75;;;6.51;76.81
84032;BME280;74113;46.556;24.570;2023-11-21T07:25:00;97682.11;;;6.48;77.83
84032;BME280;74113;46.556;24.570;2023-11-21T07:27:29;97685.79;;;6.52;79.68
84032;BME280;74113;46.556;24.570;2023-11-21T07:29:58;97685.21;;;6.64;78.28
84032;BME280;74113;46.556;24.570;2023-11-21T07:32:36;97687.73;;;6.71;78.10
84032;BME280;74113;46.556;24.570;2023-11-21T07:35:06;97685.23;;;6.79;78.99
84032;BME280;74113;46.556;24.570;2023-11-21T07:37:47;97685.96;;;6.89;78.49
84032;BME280;74113;46.556;24.570;2023-11-21T07:40:27;97685.96;;;6.93;78.36
84032;BME280;74113;46.556;24.570;2023-11-21T07:43:03;97686.59;;;6.90;77.87
84032;BME280;74113;46.556;24.570;2023-11-21T07:45:35;97692.36;;;6.88;77.91
84032;BME280;74113;46.556;24.570;2023-11-21T07:48:05;97691.52;;;6.83;77.82
84032;BME280;74113;46.556;24.570;2023-11-21T07:50:35;97690.75;;;6.79;77.91
84032;BME280;74113;46.556;24.570;2023-11-21T07:53:04;97682.93;;;6.76;77.91
84032;BME280;74113;46.556;24.570;2023-11-21T07:55:34;97684.91;;;6.73;77.96
84032;BME280;74113;46.556;24.570;2023-11-21T07:58:04;97679.91;;;6.73;78.06
84032;BME280;74113;46.556;24.570;2023-11-21T08:00:33;97682.80;;;6.75;78.49
84032;BME280;74113;46.556;24.570;2023-11-21T08:03:03;97685.02;;;6.86;79.53
84032;BME280;74113;46.556;24.570;2023-11-21T08:05:32;97680.02;;;6.96;78.52
84032;BME280;74113;46.556;24.570;2023-11-21T08:08:05;97684.59;;;7.03;78.40
84032;BME280;74113;46.556;24.570;2023-11-21T08:10:34;97684.31;;;7.12;78.43
84032;BME280;74113;46.556;24.570;2023-11-21T08:13:07;97685.66;;;7.22;78.10
84032;BME280;74113;46.556;24.570;2023-11-21T08:15:37;97690.04;;;7.30;78.19
84032;BME280;74113;46.556;24.570;2023-11-21T08:18:07;97689.70;;;7.41;78.00
84032;BME280;74113;46.556;24.570;2023-11-21T08:20:39;97687.83;;;7.44;78.06
84032;BME280;74113;46.556;24.570;2023-11-21T08:23:08;97687.70;;;7.48;78.36
84032;BME280;74113;46.556;24.570;2023-11-21T08:25:37;97684.73;;;7.54;77.99
84032;BME280;74113;46.556;24.570;2023-11-21T08:28:05;97686.81;;;7.58;77.79
84032;BME280;74113;46.556;24.570;2023-11-21T08:30:34;97686.14;;;7.62;77.73
84032;BME280;74113;46.556;24.570;2023-11-21T08:33:03;97688.17;;;7.68;78.76
84032;BME280;74113;46.556;24.570;2023-11-21T08:35:32;97682.77;;;7.74;77.76
84032;BME280;74113;46.556;24.570;2023-11-21T08:38:01;97684.45;;;7.85;78.70
84032;BME280;74113;46.556;24.570;2023-11-21T08:40:30;97679.20;;;7.96;78.19
84032;BME280;74113;46.556;24.570;2023-11-21T08:42:59;97679.48;;;8.11;79.59
84032;BME280;74113;46.556;24.570;2023-11-21T08:45:28;97679.44;;;8.25;78.64
84032;BME280;74113;46.556;24.570;2023-11-21T08:47:57;97682.45;;;8.33;77.96
84032;BME280;74113;46.556;24.570;2023-11-21T08:50:26;97682.58;;;8.34;77.71
84032;BME280;74113;46.556;24.570;2023-11-21T08:52:54;97679.35;;;8.38;77.88
84032;BME280;74113;46.556;24.570;2023-11-21T08:55:25;97679.55;;;8.41;77.37
84032;BME280;74113;46.556;24.570;2023-11-21T08:57:53;97681.88;;;8.44;77.25
84032;BME280;74113;46.556;24.570;2023-11-21T09:00:25;97683.05;;;8.45;77.56
84032;BME280;74113;46.556;24.570;2023-11-21T09:03:01;97681.08;;;8.47;77.68
84032;BME280;74113;46.556;24.570;2023-11-21T09:05:33;97675.23;;;8.50;77.27
84032;BME280;74113;46.556;24.570;2023-11-21T09:08:02;97670.30;;;8.57;77.27
84032;BME280;74113;46.556;24.570;2023-11-21T09:10:31;97664.71;;;8.66;77.47
84032;BME280;74113;46.556;24.570;2023-11-21T09:13:01;97665.09;;;8.78;77.21
84032;BME280;74113;46.556;24.570;2023-11-21T09:15:30;97663.27;;;8.84;77.66
84032;BME280;74113;46.556;24.570;2023-11-21T09:17:59;97664.14;;;8.93;78.01
84032;BME280;74113;46.556;24.570;2023-11-21T09:20:28;97657.70;;;9.02;77.11
84032;BME280;74113;46.556;24.570;2023-11-21T09:22:57;97649.23;;;9.09;77.01
84032;BME280;74113;46.556;24.570;2023-11-21T09:25:26;97644.85;;;9.19;77.00
84032;BME280;74113;46.556;24.570;2023-11-21T09:27:57;97644.93;;;9.29;76.77
84032;BME280;74113;46.556;24.570;2023-11-21T09:30:26;97641.11;;;9.41;76.76
84032;BME280;74113;46.556;24.570;2023-11-21T09:32:55;97639.72;;;9.49;76.43
84032;BME280;74113;46.556;24.570;2023-11-21T09:35:24;97636.05;;;9.54;76.39
84032;BME280;74113;46.556;24.570;2023-11-21T09:37:53;97633.42;;;9.62;76.88
84032;BME280;74113;46.556;24.570;2023-11-21T09:40:22;97620.09;;;9.73;76.10
84032;BME280;74113;46.556;24.570;2023-11-21T09:42:55;97619.57;;;9.77;75.50
84032;BME280;74113;46.556;24.570;2023-11-21T09:45:29;97623.73;;;9.81;75.32
84032;BME280;74113;46.556;24.570;2023-11-21T09:48:02;97621.84;;;9.84;75.25
84032;BME280;74113;46.556;24.570;2023-11-21T09:50:32;97618.81;;;9.89;74.95
84032;BME280;74113;46.556;24.570;2023-11-21T09:53:21;97619.80;;;10.06;75.14
84032;BME280;74113;46.556;24.570;2023-11-21T09:55:52;97610.55;;;10.15;75.10
84032;BME280;74113;46.556;24.570;2023-11-21T09:58:21;97612.73;;;10.20;74.91
84032;BME280;74113;46.556;24.570;2023-11-21T10:00:55;97618.70;;;10.29;74.60
84032;BME280;74113;46.556;24.570;2023-11-21T10:03:27;97620.36;;;10.38;74.70
84032;BME280;74113;46.556;24.570;2023-11-21T10:05:59;97614.41;;;10.47;74.16
84032;BME280;74113;46.556;24.570;2023-11-21T10:08:35;97611.29;;;10.57;73.53
84032;BME280;74113;46.556;24.570;2023-11-21T10:11:17;97609.52;;;10.68;73.35
84032;BME280;74113;46.556;24.570;2023-11-21T10:13:55;97605.13;;;10.86;72.91
84032;BME280;74113;46.556;24.570;2023-11-21T10:16:28;97601.33;;;11.20;71.71
84032;BME280;74113;46.556;24.570;2023-11-21T10:18:58;97598.33;;;11.37;70.63
84032;BME280;74113;46.556;24.570;2023-11-21T10:21:39;97598.25;;;11.38;70.85
84032;BME280;74113;46.556;24.570;2023-11-21T10:24:09;97596.57;;;11.41;69.91
84032;BME280;74113;46.556;24.570;2023-11-21T10:26:44;97598.34;;;11.46;70.11
84032;BME280;74113;46.556;24.570;2023-11-21T10:29:21;97594.36;;;11.53;70.01
84032;BME280;74113;46.556;24.570;2023-11-21T10:31:53;97590.94;;;11.59;69.54
84032;BME280;74113;46.556;24.570;2023-11-21T10:34:26;97589.58;;;11.65;70.76
84032;BME280;74113;46.556;24.570;2023-11-21T10:36:56;97587.41;;;11.70;69.21
84032;BME280;74113;46.556;24.570;2023-11-21T10:39:26;97584.96;;;11.66;69.28
84032;BME280;74113;46.556;24.570;2023-11-21T10:42:01;97584.36;;;11.68;70.08
84032;BME280;74113;46.556;24.570;2023-11-21T10:44:30;97586.72;;;11.73;70.02
84032;BME280;74113;46.556;24.570;2023-11-21T10:47:00;97581.95;;;11.74;69.07
84032;BME280;74113;46.556;24.570;2023-11-21T10:49:30;97580.45;;;11.73;68.98
84032;BME280;74113;46.556;24.570;2023-11-21T10:52:00;97580.51;;;11.72;67.93
84032;BME280;74113;46.556;24.570;2023-11-21T10:54:29;97576.47;;;11.69;69.12
84032;BME280;74113;46.556;24.570;2023-11-21T10:57:00;97575.62;;;11.66;67.23
84032;BME280;74113;46.556;24.570;2023-11-21T10:59:31;97576.14;;;11.56;67.51
84032;BME280;74113;46.556;24.570;2023-11-21T11:02:09;97575.45;;;11.53;68.44
84032;BME280;74113;46.556;24.570;2023-11-21T11:04:44;97575.94;;;11.46;68.16
84032;BME280;74113;46.556;24.570;2023-11-21T11:07:16;97572.33;;;11.46;69.26
84032;BME280;74113;46.556;24.570;2023-11-21T11:09:45;97573.45;;;11.48;69.02
84032;BME280;74113;46.556;24.570;2023-11-21T11:12:17;97573.61;;;11.52;69.08
84032;BME280;74113;46.556;24.570;2023-11-21T11:14:48;97572.04;;;11.58;67.76
84032;BME280;74113;46.556;24.570;2023-11-21T11:17:19;97571.65;;;11.62;65.59
84032;BME280;74113;46.556;24.570;2023-11-21T11:19:50;97571.23;;;11.63;65.10
84032;BME280;74113;46.556;24.570;2023-11-21T11:22:37;97569.34;;;11.63;65.46
84032;BME280;74113;46.556;24.570;2023-11-21T11:25:30;97570.34;;;11.71;65.91
84032;BME280;74113;46.556;24.570;2023-11-21T11:28:08;97570.95;;;11.78;66.52
84032;BME280;74113;46.556;24.570;2023-11-21T11:33:57;97562.43;;;11.94;65.47
84032;BME280;74113;46.556;24.570;2023-11-21T11:36:44;97564.16;;;12.07;64.76
84032;BME280;74113;46.556;24.570;2023-11-21T11:39:35;97569.67;;;12.26;63.88
84032;BME280;74113;46.556;24.570;2023-11-21T11:42:15;97564.41;;;12.45;62.58
84032;BME280;74113;46.556;24.570;2023-11-21T11:44:47;97564.60;;;12.57;63.15
84032;BME280;74113;46.556;24.570;2023-11-21T11:47:28;97565.55;;;13.02;63.06
84032;BME280;74113;46.556;24.570;2023-11-21T11:50:12;97560.77;;;13.42;60.13
84032;BME280;74113;46.556;24.570;2023-11-21T11:52:51;97559.87;;;13.56;60.50
84032;BME280;74113;46.556;24.570;2023-11-21T11:55:23;97557.73;;;13.68;60.14
84032;BME280;74113;46.556;24.570;2023-11-21T11:57:54;97549.41;;;13.70;59.74
84032;BME280;74113;46.556;24.570;2023-11-21T12:03:01;97538.50;;;13.35;60.83
84032;BME280;74113;46.556;24.570;2023-11-21T12:05:39;97540.16;;;13.20;60.36
84032;BME280;74113;46.556;24.570;2023-11-21T12:08:18;97542.02;;;13.06;60.24
84032;BME280;74113;46.556;24.570;2023-11-21T12:10:51;97542.83;;;12.92;60.70
84032;BME280;74113;46.556;24.570;2023-11-21T12:13:23;97544.16;;;12.79;60.29
84032;BME280;74113;46.556;24.570;2023-11-21T12:15:53;97541.06;;;12.67;60.18
84032;BME280;74113;46.556;24.570;2023-11-21T12:18:32;97533.81;;;12.57;61.16
84032;BME280;74113;46.556;24.570;2023-11-21T12:22:14;97521.40;;;12.42;60.85
84032;BME280;74113;46.556;24.570;2023-11-21T12:24:43;97518.63;;;12.36;61.05
84032;BME280;74113;46.556;24.570;2023-11-21T12:27:15;97518.46;;;12.30;61.75
84032;BME280;74113;46.556;24.570;2023-11-21T12:29:46;97522.80;;;12.24;61.23
84032;BME280;74113;46.556;24.570;2023-11-21T12:32:15;97524.96;;;12.20;61.76
84032;BME280;74113;46.556;24.570;2023-11-21T12:34:45;97530.36;;;12.17;62.38
84032;BME280;74113;46.556;24.570;2023-11-21T12:37:15;97535.85;;;12.15;62.21
84032;BME280;74113;46.556;24.570;2023-11-21T12:39:44;97537.06;;;12.09;61.21
84032;BME280;74113;46.556;24.570;2023-11-21T12:42:15;97536.15;;;12.04;61.65
84032;BME280;74113;46.556;24.570;2023-11-21T12:44:46;97534.64;;;12.00;61.74
84032;BME280;74113;46.556;24.570;2023-11-21T12:47:19;97533.03;;;11.94;61.04
84032;BME280;74113;46.556;24.570;2023-11-21T12:49:51;97532.55;;;11.87;61.28
84032;BME280;74113;46.556;24.570;2023-11-21T12:52:24;97533.66;;;11.83;61.89
84032;BME280;74113;46.556;24.570;2023-11-21T12:54:53;97530.20;;;11.80;61.89
84032;BME280;74113;46.556;24.570;2023-11-21T12:57:27;97529.14;;;11.77;62.20
84032;BME280;74113;46.556;24.570;2023-11-21T12:59:59;97526.29;;;11.75;62.11
84032;BME280;74113;46.556;24.570;2023-11-21T13:02:31;97527.91;;;11.74;63.05
84032;BME280;74113;46.556;24.570;2023-11-21T13:05:04;97525.06;;;11.72;63.58
84032;BME280;74113;46.556;24.570;2023-11-21T13:07:42;97524.30;;;11.70;63.17
84032;BME280;74113;46.556;24.570;2023-11-21T13:10:16;97524.04;;;11.68;62.50
84032;BME280;74113;46.556;24.570;2023-11-21T13:12:45;97526.02;;;11.67;62.31
84032;BME280;74113;46.556;24.570;2023-11-21T13:15:17;97527.42;;;11.67;61.83
84032;BME280;74113;46.556;24.570;2023-11-21T13:17:46;97524.70;;;11.66;62.48
84032;BME280;74113;46.556;24.570;2023-11-21T13:20:16;97526.56;;;11.63;61.68
84032;BME280;74113;46.556;24.570;2023-11-21T13:25:25;97524.80;;;11.58;62.59
84032;BME280;74113;46.556;24.570;2023-11-21T13:27:56;97527.98;;;11.56;62.12